Accueil
METAR-TAF:

METAR-TAF

Aéroports :

Benson, Angleterre

latitude: 51-37N, longitude: 001-05W, altitude: 63 m

Observation

Le bulletin a été fait il y a 54 minutes, à 11:20 UTC
Vent 6 kt de nord
Température 10°C
Humidité 62%
Pression 1018 hPa
Visibilité 10 km ou plus
Quelques nuages à une hauteur de 3800 ft
Nuages fragmentés à une hauteur de 4500 ft

METAR: EGUB 031120Z 35006KT 9999 FEW038 BKN045 10/03 Q1018 NOSIG RMK BLU BLU

Heure: 13:14 (12:14 UTC)

Prévision

Le bulletin a été fait il y a 16 heures et 35 minutes, à 19:39 UTC
Prévision valable du 02 à 21 UTC au 03 à 01 UTC
Vent 6 kt de ouest
Visibilité 10 km ou plus
Nuages épars à une hauteur de 3500 ft
Probabilité 30% :
Temporairement
du 02 à 21 UTC au 03 à 01 UTC
Nuages épars à une hauteur de 2400 ft

TAF: EGUB 021939Z 0221/0301 27006KT 9999 SCT035 PROB30 TEMPO 0221/0301 SCT024

Observations et prévisions météorologiques de plus de 4000 aéroports (messages METAR et TAF).

Les stations disponibles sont représentées par des disques jaunes et rouges sur la carte.

Passer la souris dessus pour voir le nom de la station.

Cliquer dessus pour voir les observations et prévisions météorologiques.

Pour changer de carte: cliquez sur les boutons verts avec une croix noire pour zoomer, sur le bouton vert avec un tiret pour effectuer un zoom arrière, ou sur les flèches vertes pour les cartes adjacentes.


METAR-TAF: